sensor_id;sensor_type;location;lat;lon;timestamp;temperature;humidity
2447;DHT22;26430;48.818;9.244;2023-04-25T00:01:22;9.60;99.90
2447;DHT22;26430;48.818;9.244;2023-04-25T00:03:48;9.60;99.90
2447;DHT22;26430;48.818;9.244;2023-04-25T00:06:13;9.70;99.90
2447;DHT22;26430;48.818;9.244;2023-04-25T00:08:40;9.70;99.90
2447;DHT22;26430;48.818;9.244;2023-04-25T00:11:05;9.80;99.90
2447;DHT22;26430;48.818;9.244;2023-04-25T00:13:32;9.90;99.90
2447;DHT22;26430;48.818;9.244;2023-04-25T00:15:58;9.90;99.90
2447;DHT22;26430;48.818;9.244;2023-04-25T00:18:24;9.80;99.90
2447;DHT22;26430;48.818;9.244;2023-04-25T00:20:50;9.70;99.90
2447;DHT22;26430;48.818;9.244;2023-04-25T00:23:16;9.80;99.90
2447;DHT22;26430;48.818;9.244;2023-04-25T00:25:46;9.90;99.90
2447;DHT22;26430;48.818;9.244;2023-04-25T00:28:12;9.80;99.90
2447;DHT22;26430;48.818;9.244;2023-04-25T00:30:39;10.00;99.90
2447;DHT22;26430;48.818;9.244;2023-04-25T00:33:05;10.30;99.90
2447;DHT22;26430;48.818;9.244;2023-04-25T00:35:30;10.10;99.90
2447;DHT22;26430;48.818;9.244;2023-04-25T00:37:56;10.00;99.90
2447;DHT22;26430;48.818;9.244;2023-04-25T00:40:22;9.80;99.90
2447;DHT22;26430;48.818;9.244;2023-04-25T00:42:48;9.90;99.90
2447;DHT22;26430;48.818;9.244;2023-04-25T00:45:14;10.00;99.90
2447;DHT22;26430;48.818;9.244;2023-04-25T00:47:41;10.10;99.90
2447;DHT22;26430;48.818;9.244;2023-04-25T00:50:08;10.00;99.90
2447;DHT22;26430;48.818;9.244;2023-04-25T00:52:34;10.00;99.90
2447;DHT22;26430;48.818;9.244;2023-04-25T00:55:00;9.70;99.90
2447;DHT22;26430;48.818;9.244;2023-04-25T00:57:26;9.50;99.90
2447;DHT22;26430;48.818;9.244;2023-04-25T00:59:52;9.30;99.90
2447;DHT22;26430;48.818;9.244;2023-04-25T01:02:20;9.20;99.90
2447;DHT22;26430;48.818;9.244;2023-04-25T01:04:46;9.10;99.90
2447;DHT22;26430;48.818;9.244;2023-04-25T01:07:13;9.00;99.90
2447;DHT22;26430;48.818;9.244;2023-04-25T01:09:47;8.90;99.90
2447;DHT22;26430;48.818;9.244;2023-04-25T01:12:13;8.90;99.90
2447;DHT22;26430;48.818;9.244;2023-04-25T01:14:39;9.00;99.90
2447;DHT22;26430;48.818;9.244;2023-04-25T01:17:05;9.30;99.90
2447;DHT22;26430;48.818;9.244;2023-04-25T01:19:33;9.20;99.90
2447;DHT22;26430;48.818;9.244;2023-04-25T01:21:58;9.10;99.90
2447;DHT22;26430;48.818;9.244;2023-04-25T01:24:24;9.10;99.90
2447;DHT22;26430;48.818;9.244;2023-04-25T01:26:50;9.10;99.90
2447;DHT22;26430;48.818;9.244;2023-04-25T01:29:19;9.00;99.90
2447;DHT22;26430;48.818;9.244;2023-04-25T01:31:46;9.10;99.90
2447;DHT22;26430;48.818;9.244;2023-04-25T01:34:14;9.20;99.90
2447;DHT22;26430;48.818;9.244;2023-04-25T01:36:40;9.10;99.90
2447;DHT22;26430;48.818;9.244;2023-04-25T01:39:06;9.10;99.90
2447;DHT22;26430;48.818;9.244;2023-04-25T01:41:32;8.90;99.90
2447;DHT22;26430;48.818;9.244;2023-04-25T01:44:00;9.00;99.90
2447;DHT22;26430;48.818;9.244;2023-04-25T01:46:27;9.00;99.90
2447;DHT22;26430;48.818;9.244;2023-04-25T01:48:53;8.90;99.90
2447;DHT22;26430;48.818;9.244;2023-04-25T01:51:18;8.90;99.90
2447;DHT22;26430;48.818;9.244;2023-04-25T01:53:44;9.10;99.90
2447;DHT22;26430;48.818;9.244;2023-04-25T01:56:10;9.00;99.90
2447;DHT22;26430;48.818;9.244;2023-04-25T01:58:36;9.20;99.90
2447;DHT22;26430;48.818;9.244;2023-04-25T02:01:01;9.30;99.90
2447;DHT22;26430;48.818;9.244;2023-04-25T02:03:27;9.30;99.90
2447;DHT22;26430;48.818;9.244;2023-04-25T02:05:53;9.30;99.90
2447;DHT22;26430;48.818;9.244;2023-04-25T02:08:18;9.40;99.90
2447;DHT22;26430;48.818;9.244;2023-04-25T02:10:44;9.30;99.90
2447;DHT22;26430;48.818;9.244;2023-04-25T02:13:09;9.30;99.90
2447;DHT22;26430;48.818;9.244;2023-04-25T02:15:35;9.30;99.90
2447;DHT22;26430;48.818;9.244;2023-04-25T02:18:01;9.20;99.90
2447;DHT22;26430;48.818;9.244;2023-04-25T02:20:28;9.20;99.90
2447;DHT22;26430;48.818;9.244;2023-04-25T02:22:54;9.30;99.90
2447;DHT22;26430;48.818;9.244;2023-04-25T02:25:20;9.20;99.90
2447;DHT22;26430;48.818;9.244;2023-04-25T02:27:46;9.20;99.90
2447;DHT22;26430;48.818;9.244;2023-04-25T02:30:12;9.10;99.90
2447;DHT22;26430;48.818;9.244;2023-04-25T02:32:39;9.10;99.90
2447;DHT22;26430;48.818;9.244;2023-04-25T02:35:05;8.80;99.90
2447;DHT22;26430;48.818;9.244;2023-04-25T02:37:35;8.80;99.90
2447;DHT22;26430;48.818;9.244;2023-04-25T02:40:02;8.70;99.90
2447;DHT22;26430;48.818;9.244;2023-04-25T02:42:28;8.80;99.90
2447;DHT22;26430;48.818;9.244;2023-04-25T02:44:54;9.00;99.90
2447;DHT22;26430;48.818;9.244;2023-04-25T02:47:20;8.90;99.90
2447;DHT22;26430;48.818;9.244;2023-04-25T02:49:46;8.90;99.90
2447;DHT22;26430;48.818;9.244;2023-04-25T02:52:11;8.90;99.90
2447;DHT22;26430;48.818;9.244;2023-04-25T02:54:39;8.90;99.90
2447;DHT22;26430;48.818;9.244;2023-04-25T02:57:05;9.10;99.90
2447;DHT22;26430;48.818;9.244;2023-04-25T02:59:30;9.20;99.90
2447;DHT22;26430;48.818;9.244;2023-04-25T03:01:56;9.30;99.90
2447;DHT22;26430;48.818;9.244;2023-04-25T03:04:22;9.40;99.90
2447;DHT22;26430;48.818;9.244;2023-04-25T03:06:52;9.50;99.90
2447;DHT22;26430;48.818;9.244;2023-04-25T03:09:18;9.50;99.90
2447;DHT22;26430;48.818;9.244;2023-04-25T03:11:44;9.40;99.90
2447;DHT22;26430;48.818;9.244;2023-04-25T03:14:11;9.40;99.90
2447;DHT22;26430;48.818;9.244;2023-04-25T03:16:36;9.40;99.90
2447;DHT22;26430;48.818;9.244;2023-04-25T03:19:03;9.30;99.90
2447;DHT22;26430;48.818;9.244;2023-04-25T03:21:29;9.40;99.90
2447;DHT22;26430;48.818;9.244;2023-04-25T03:23:57;9.50;99.90
2447;DHT22;26430;48.818;9.244;2023-04-25T03:26:23;9.40;99.90
2447;DHT22;26430;48.818;9.244;2023-04-25T03:28:48;9.10;99.90
2447;DHT22;26430;48.818;9.244;2023-04-25T03:31:14;8.90;99.90
2447;DHT22;26430;48.818;9.244;2023-04-25T03:33:40;9.00;99.90
2447;DHT22;26430;48.818;9.244;2023-04-25T03:36:06;9.00;99.90
2447;DHT22;26430;48.818;9.244;2023-04-25T03:38:31;8.70;99.90
2447;DHT22;26430;48.818;9.244;2023-04-25T03:40:57;8.80;99.90
2447;DHT22;26430;48.818;9.244;2023-04-25T03:43:23;8.90;99.90
2447;DHT22;26430;48.818;9.244;2023-04-25T03:45:48;9.00;99.90
2447;DHT22;26430;48.818;9.244;2023-04-25T03:48:14;9.10;99.90
2447;DHT22;26430;48.818;9.244;2023-04-25T03:50:39;9.20;99.90
2447;DHT22;26430;48.818;9.244;2023-04-25T03:53:05;9.20;99.90
2447;DHT22;26430;48.818;9.244;2023-04-25T03:55:31;9.30;99.90
2447;DHT22;26430;48.818;9.244;2023-04-25T03:57:57;9.30;99.90
2447;DHT22;26430;48.818;9.244;2023-04-25T04:00:23;9.10;99.90
2447;DHT22;26430;48.818;9.244;2023-04-25T04:02:49;9.10;99.90
2447;DHT22;26430;48.818;9.244;2023-04-25T04:05:15;9.20;99.90
2447;DHT22;26430;48.818;9.244;2023-04-25T04:07:40;9.30;99.90
2447;DHT22;26430;48.818;9.244;2023-04-25T04:10:10;9.10;99.90
2447;DHT22;26430;48.818;9.244;2023-04-25T04:12:37;9.20;99.90
2447;DHT22;26430;48.818;9.244;2023-04-25T04:15:04;9.20;99.90
2447;DHT22;26430;48.818;9.244;2023-04-25T04:17:30;9.10;99.90
2447;DHT22;26430;48.818;9.244;2023-04-25T04:19:56;9.20;99.90
2447;DHT22;26430;48.818;9.244;2023-04-25T04:22:22;9.00;99.90
2447;DHT22;26430;48.818;9.244;2023-04-25T04:24:48;9.00;99.90
2447;DHT22;26430;48.818;9.244;2023-04-25T04:27:16;9.00;99.90
2447;DHT22;26430;48.818;9.244;2023-04-25T04:29:43;9.30;99.90
2447;DHT22;26430;48.818;9.244;2023-04-25T04:32:08;9.40;99.90
2447;DHT22;26430;48.818;9.244;2023-04-25T04:34:34;8.90;99.90
2447;DHT22;26430;48.818;9.244;2023-04-25T04:37:00;8.80;99.90
2447;DHT22;26430;48.818;9.244;2023-04-25T04:39:26;8.70;99.90
2447;DHT22;26430;48.818;9.244;2023-04-25T04:41:51;8.80;99.90
2447;DHT22;26430;48.818;9.244;2023-04-25T04:44:17;8.90;99.90
2447;DHT22;26430;48.818;9.244;2023-04-25T04:46:43;9.20;99.90
2447;DHT22;26430;48.818;9.244;2023-04-25T04:49:10;9.10;99.90
2447;DHT22;26430;48.818;9.244;2023-04-25T04:51:36;8.90;99.90
2447;DHT22;26430;48.818;9.244;2023-04-25T04:54:02;9.00;99.90
2447;DHT22;26430;48.818;9.244;2023-04-25T04:56:29;9.00;99.90
2447;DHT22;26430;48.818;9.244;2023-04-25T04:58:56;9.10;99.90
2447;DHT22;26430;48.818;9.244;2023-04-25T05:01:22;9.30;99.90
2447;DHT22;26430;48.818;9.244;2023-04-25T05:03:48;8.90;99.90
2447;DHT22;26430;48.818;9.244;2023-04-25T05:06:15;8.90;99.90
2447;DHT22;26430;48.818;9.244;2023-04-25T05:08:41;9.00;99.90
2447;DHT22;26430;48.818;9.244;2023-04-25T05:11:06;9.00;99.90
2447;DHT22;26430;48.818;9.244;2023-04-25T05:13:32;9.10;99.90
2447;DHT22;26430;48.818;9.244;2023-04-25T05:15:57;9.10;99.90
2447;DHT22;26430;48.818;9.244;2023-04-25T05:18:23;9.10;99.90
2447;DHT22;26430;48.818;9.244;2023-04-25T05:20:49;8.90;99.90
2447;DHT22;26430;48.818;9.244;2023-04-25T05:23:14;9.00;99.90
2447;DHT22;26430;48.818;9.244;2023-04-25T05:25:40;9.10;99.90
2447;DHT22;26430;48.818;9.244;2023-04-25T05:28:06;9.30;99.90
2447;DHT22;26430;48.818;9.244;2023-04-25T05:30:32;9.40;99.90
2447;DHT22;26430;48.818;9.244;2023-04-25T05:32:57;9.40;99.90
2447;DHT22;26430;48.818;9.244;2023-04-25T05:35:23;9.50;99.90
2447;DHT22;26430;48.818;9.244;2023-04-25T05:37:48;9.40;99.90
2447;DHT22;26430;48.818;9.244;2023-04-25T05:40:14;9.30;99.90
2447;DHT22;26430;48.818;9.244;2023-04-25T05:42:40;9.30;99.90
2447;DHT22;26430;48.818;9.244;2023-04-25T05:45:06;9.40;99.90
2447;DHT22;26430;48.818;9.244;2023-04-25T05:47:31;9.40;99.90
2447;DHT22;26430;48.818;9.244;2023-04-25T05:49:57;9.30;99.90
2447;DHT22;26430;48.818;9.244;2023-04-25T05:52:22;9.30;99.90
2447;DHT22;26430;48.818;9.244;2023-04-25T05:54:48;9.20;99.90
2447;DHT22;26430;48.818;9.244;2023-04-25T05:57:24;8.90;99.90
2447;DHT22;26430;48.818;9.244;2023-04-25T05:59:50;8.90;99.90
2447;DHT22;26430;48.818;9.244;2023-04-25T06:02:16;8.90;99.90
2447;DHT22;26430;48.818;9.244;2023-04-25T06:04:42;9.00;99.90
2447;DHT22;26430;48.818;9.244;2023-04-25T06:07:08;8.90;99.90
2447;DHT22;26430;48.818;9.244;2023-04-25T06:09:34;8.90;99.90
2447;DHT22;26430;48.818;9.244;2023-04-25T06:11:59;8.90;99.90
2447;DHT22;26430;48.818;9.244;2023-04-25T06:14:26;9.00;99.90
2447;DHT22;26430;48.818;9.244;2023-04-25T06:16:52;8.90;99.90
2447;DHT22;26430;48.818;9.244;2023-04-25T06:19:17;8.90;99.90
2447;DHT22;26430;48.818;9.244;2023-04-25T06:21:44;8.90;99.90
2447;DHT22;26430;48.818;9.244;2023-04-25T06:24:09;9.00;99.90
2447;DHT22;26430;48.818;9.244;2023-04-25T06:26:35;8.90;99.90
2447;DHT22;26430;48.818;9.244;2023-04-25T06:29:01;9.10;99.90
2447;DHT22;26430;48.818;9.244;2023-04-25T06:31:26;9.20;99.90
2447;DHT22;26430;48.818;9.244;2023-04-25T06:33:54;9.40;99.90
2447;DHT22;26430;48.818;9.244;2023-04-25T06:36:20;9.30;99.90
2447;DHT22;26430;48.818;9.244;2023-04-25T06:38:50;9.50;99.90
2447;DHT22;26430;48.818;9.244;2023-04-25T06:41:17;9.50;99.90
2447;DHT22;26430;48.818;9.244;2023-04-25T06:43:42;9.60;99.90
2447;DHT22;26430;48.818;9.244;2023-04-25T06:46:08;9.80;99.90
2447;DHT22;26430;48.818;9.244;2023-04-25T06:48:33;9.70;99.90
2447;DHT22;26430;48.818;9.244;2023-04-25T06:50:59;9.80;99.90
2447;DHT22;26430;48.818;9.244;2023-04-25T06:53:24;9.80;99.90
2447;DHT22;26430;48.818;9.244;2023-04-25T06:55:50;9.80;99.90
2447;DHT22;26430;48.818;9.244;2023-04-25T06:58:15;9.30;99.90
2447;DHT22;26430;48.818;9.244;2023-04-25T07:00:41;9.20;99.90
2447;DHT22;26430;48.818;9.244;2023-04-25T07:03:07;9.40;99.90
2447;DHT22;26430;48.818;9.244;2023-04-25T07:05:32;9.50;99.90
2447;DHT22;26430;48.818;9.244;2023-04-25T07:07:58;9.50;99.90
2447;DHT22;26430;48.818;9.244;2023-04-25T07:10:23;9.80;99.90
2447;DHT22;26430;48.818;9.244;2023-04-25T07:12:50;9.90;99.90
2447;DHT22;26430;48.818;9.244;2023-04-25T07:15:16;10.00;99.90
2447;DHT22;26430;48.818;9.244;2023-04-25T07:17:41;9.90;99.90
2447;DHT22;26430;48.818;9.244;2023-04-25T07:20:08;9.80;99.90
2447;DHT22;26430;48.818;9.244;2023-04-25T07:22:34;9.60;99.90
2447;DHT22;26430;48.818;9.244;2023-04-25T07:25:00;9.70;99.90
2447;DHT22;26430;48.818;9.244;2023-04-25T07:27:25;9.90;99.90
2447;DHT22;26430;48.818;9.244;2023-04-25T07:29:51;9.90;99.90
2447;DHT22;26430;48.818;9.244;2023-04-25T07:32:16;9.80;99.90
2447;DHT22;26430;48.818;9.244;2023-04-25T07:34:42;9.80;99.90
2447;DHT22;26430;48.818;9.244;2023-04-25T07:37:08;10.00;99.90
2447;DHT22;26430;48.818;9.244;2023-04-25T07:39:33;10.00;99.90
2447;DHT22;26430;48.818;9.244;2023-04-25T07:41:59;9.90;99.90
2447;DHT22;26430;48.818;9.244;2023-04-25T07:44:25;10.10;99.90
2447;DHT22;26430;48.818;9.244;2023-04-25T07:46:51;9.90;99.90
2447;DHT22;26430;48.818;9.244;2023-04-25T07:49:16;9.90;99.90
2447;DHT22;26430;48.818;9.244;2023-04-25T07:51:42;10.00;99.90
2447;DHT22;26430;48.818;9.244;2023-04-25T07:54:09;9.90;99.90
2447;DHT22;26430;48.818;9.244;2023-04-25T07:56:35;9.80;99.90
2447;DHT22;26430;48.818;9.244;2023-04-25T07:59:01;9.80;99.90
2447;DHT22;26430;48.818;9.244;2023-04-25T08:01:26;9.70;99.90
2447;DHT22;26430;48.818;9.244;2023-04-25T08:03:52;9.80;99.90
2447;DHT22;26430;48.818;9.244;2023-04-25T08:06:18;9.80;99.90
2447;DHT22;26430;48.818;9.244;2023-04-25T08:08:43;9.90;99.90
2447;DHT22;26430;48.818;9.244;2023-04-25T08:11:09;9.70;99.90
2447;DHT22;26430;48.818;9.244;2023-04-25T08:13:35;9.70;99.90
2447;DHT22;26430;48.818;9.244;2023-04-25T08:16:01;9.60;99.90
2447;DHT22;26430;48.818;9.244;2023-04-25T08:18:27;9.80;99.90
2447;DHT22;26430;48.818;9.244;2023-04-25T08:20:52;9.80;99.90
2447;DHT22;26430;48.818;9.244;2023-04-25T08:23:18;9.80;99.90
2447;DHT22;26430;48.818;9.244;2023-04-25T08:25:43;9.70;99.90
2447;DHT22;26430;48.818;9.244;2023-04-25T08:28:09;9.60;99.90
2447;DHT22;26430;48.818;9.244;2023-04-25T08:30:34;9.60;99.90
2447;DHT22;26430;48.818;9.244;2023-04-25T08:33:00;9.50;99.90
2447;DHT22;26430;48.818;9.244;2023-04-25T08:35:26;9.50;99.90
2447;DHT22;26430;48.818;9.244;2023-04-25T08:37:51;9.40;99.90
2447;DHT22;26430;48.818;9.244;2023-04-25T08:40:17;9.30;99.90
2447;DHT22;26430;48.818;9.244;2023-04-25T08:42:44;9.20;99.90
2447;DHT22;26430;48.818;9.244;2023-04-25T08:45:11;9.30;99.90
2447;DHT22;26430;48.818;9.244;2023-04-25T08:47:38;9.20;99.90
2447;DHT22;26430;48.818;9.244;2023-04-25T08:50:05;9.20;99.90
2447;DHT22;26430;48.818;9.244;2023-04-25T08:52:36;9.00;99.90
2447;DHT22;26430;48.818;9.244;2023-04-25T08:55:03;8.90;99.90
2447;DHT22;26430;48.818;9.244;2023-04-25T08:57:31;8.60;99.90
2447;DHT22;26430;48.818;9.244;2023-04-25T08:59:58;8.60;99.90
2447;DHT22;26430;48.818;9.244;2023-04-25T09:02:25;8.60;99.90
2447;DHT22;26430;48.818;9.244;2023-04-25T09:04:51;8.80;99.90
2447;DHT22;26430;48.818;9.244;2023-04-25T09:07:17;9.00;99.90
2447;DHT22;26430;48.818;9.244;2023-04-25T09:09:46;9.10;99.90
2447;DHT22;26430;48.818;9.244;2023-04-25T09:12:12;9.00;99.90
2447;DHT22;26430;48.818;9.244;2023-04-25T09:14:37;9.00;99.90
2447;DHT22;26430;48.818;9.244;2023-04-25T09:17:04;9.00;99.90
2447;DHT22;26430;48.818;9.244;2023-04-25T09:19:34;9.10;99.90
2447;DHT22;26430;48.818;9.244;2023-04-25T09:22:02;9.20;99.90
2447;DHT22;26430;48.818;9.244;2023-04-25T09:24:35;9.20;99.90
2447;DHT22;26430;48.818;9.244;2023-04-25T09:27:06;9.20;99.90
2447;DHT22;26430;48.818;9.244;2023-04-25T09:29:34;9.30;99.90
2447;DHT22;26430;48.818;9.244;2023-04-25T09:32:21;9.50;99.90
2447;DHT22;26430;48.818;9.244;2023-04-25T09:34:55;9.50;99.90
2447;DHT22;26430;48.818;9.244;2023-04-25T09:40:00;9.30;99.90
2447;DHT22;26430;48.818;9.244;2023-04-25T09:42:31;9.20;99.90
2447;DHT22;26430;48.818;9.244;2023-04-25T09:44:58;9.10;99.90
2447;DHT22;26430;48.818;9.244;2023-04-25T09:47:25;9.20;99.90
2447;DHT22;26430;48.818;9.244;2023-04-25T09:49:54;8.90;99.90
2447;DHT22;26430;48.818;9.244;2023-04-25T09:52:25;8.80;99.90
2447;DHT22;26430;48.818;9.244;2023-04-25T09:54:51;8.80;99.90
2447;DHT22;26430;48.818;9.244;2023-04-25T09:57:19;8.70;99.90
2447;DHT22;26430;48.818;9.244;2023-04-25T09:59:50;8.50;99.90
2447;DHT22;26430;48.818;9.244;2023-04-25T10:02:17;8.60;99.90
2447;DHT22;26430;48.818;9.244;2023-04-25T10:04:48;7.80;99.90
2447;DHT22;26430;48.818;9.244;2023-04-25T10:07:14;7.70;99.90
2447;DHT22;26430;48.818;9.244;2023-04-25T10:09:40;7.70;99.90
2447;DHT22;26430;48.818;9.244;2023-04-25T10:12:07;7.40;99.90
2447;DHT22;26430;48.818;9.244;2023-04-25T10:14:33;7.00;99.90
2447;DHT22;26430;48.818;9.244;2023-04-25T10:17:00;7.00;99.90
2447;DHT22;26430;48.818;9.244;2023-04-25T10:19:26;6.80;99.90
2447;DHT22;26430;48.818;9.244;2023-04-25T10:22:17;6.80;99.90
2447;DHT22;26430;48.818;9.244;2023-04-25T10:24:40;6.80;99.90
2447;DHT22;26430;48.818;9.244;2023-04-25T10:27:06;6.90;99.90
2447;DHT22;26430;48.818;9.244;2023-04-25T10:29:32;7.00;99.90
2447;DHT22;26430;48.818;9.244;2023-04-25T10:31:58;7.00;99.90
2447;DHT22;26430;48.818;9.244;2023-04-25T10:34:32;6.90;99.90
2447;DHT22;26430;48.818;9.244;2023-04-25T10:37:02;7.00;99.90
2447;DHT22;26430;48.818;9.244;2023-04-25T10:39:29;7.10;99.90
2447;DHT22;26430;48.818;9.244;2023-04-25T10:41:58;7.20;99.90
2447;DHT22;26430;48.818;9.244;2023-04-25T10:44:30;7.40;99.90
2447;DHT22;26430;48.818;9.244;2023-04-25T10:46:56;7.40;99.90
2447;DHT22;26430;48.818;9.244;2023-04-25T10:49:42;7.40;99.90
2447;DHT22;26430;48.818;9.244;2023-04-25T10:52:18;7.40;99.90
2447;DHT22;26430;48.818;9.244;2023-04-25T10:54:57;7.40;99.90
2447;DHT22;26430;48.818;9.244;2023-04-25T10:57:29;7.50;99.90
2447;DHT22;26430;48.818;9.244;2023-04-25T11:02:30;7.50;99.90
2447;DHT22;26430;48.818;9.244;2023-04-25T11:04:56;7.50;99.90
2447;DHT22;26430;48.818;9.244;2023-04-25T11:07:35;7.50;99.90
2447;DHT22;26430;48.818;9.244;2023-04-25T11:10:03;7.60;99.90
2447;DHT22;26430;48.818;9.244;2023-04-25T11:12:30;7.60;99.90
2447;DHT22;26430;48.818;9.244;2023-04-25T11:15:05;7.70;99.90
2447;DHT22;26430;48.818;9.244;2023-04-25T11:17:31;7.50;99.90
2447;DHT22;26430;48.818;9.244;2023-04-25T11:19:57;7.60;99.90
2447;DHT22;26430;48.818;9.244;2023-04-25T11:22:23;7.70;99.90
2447;DHT22;26430;48.818;9.244;2023-04-25T11:24:48;7.80;99.90
2447;DHT22;26430;48.818;9.244;2023-04-25T11:27:14;7.90;99.90
2447;DHT22;26430;48.818;9.244;2023-04-25T11:29:40;7.90;99.90
2447;DHT22;26430;48.818;9.244;2023-04-25T11:32:06;7.90;99.90
2447;DHT22;26430;48.818;9.244;2023-04-25T11:34:32;8.00;99.90
2447;DHT22;26430;48.818;9.244;2023-04-25T11:36:59;7.90;99.90
2447;DHT22;26430;48.818;9.244;2023-04-25T11:39:25;7.90;99.90
2447;DHT22;26430;48.818;9.244;2023-04-25T11:41:52;8.00;99.90
2447;DHT22;26430;48.818;9.244;2023-04-25T11:44:19;8.10;99.90
2447;DHT22;26430;48.818;9.244;2023-04-25T11:46:45;8.10;99.90
2447;DHT22;26430;48.818;9.244;2023-04-25T11:49:11;8.20;99.90
2447;DHT22;26430;48.818;9.244;2023-04-25T11:51:43;8.10;99.90
2447;DHT22;26430;48.818;9.244;2023-04-25T11:54:09;8.10;99.90
2447;DHT22;26430;48.818;9.244;2023-04-25T11:56:35;8.00;99.90
2447;DHT22;26430;48.818;9.244;2023-04-25T11:59:02;8.10;99.90
2447;DHT22;26430;48.818;9.244;2023-04-25T12:01:36;7.40;99.90
2447;DHT22;26430;48.818;9.244;2023-04-25T12:04:14;7.50;99.90
2447;DHT22;26430;48.818;9.244;2023-04-25T12:06:41;7.50;99.90
2447;DHT22;26430;48.818;9.244;2023-04-25T12:09:08;7.70;99.90
2447;DHT22;26430;48.818;9.244;2023-04-25T12:11:44;7.90;99.90
2447;DHT22;26430;48.818;9.244;2023-04-25T12:14:11;8.00;99.90
2447;DHT22;26430;48.818;9.244;2023-04-25T12:16:45;8.00;99.90
2447;DHT22;26430;48.818;9.244;2023-04-25T12:19:14;8.10;99.90
2447;DHT22;26430;48.818;9.244;2023-04-25T12:21:40;7.50;99.90
2447;DHT22;26430;48.818;9.244;2023-04-25T12:24:23;7.70;99.90
2447;DHT22;26430;48.818;9.244;2023-04-25T12:26:55;7.70;99.90
2447;DHT22;26430;48.818;9.244;2023-04-25T12:29:25;7.90;99.90
2447;DHT22;26430;48.818;9.244;2023-04-25T12:31:53;8.10;99.90
2447;DHT22;26430;48.818;9.244;2023-04-25T12:34:23;8.10;99.90
2447;DHT22;26430;48.818;9.244;2023-04-25T12:36:50;7.80;99.90
2447;DHT22;26430;48.818;9.244;2023-04-25T12:39:23;7.60;99.90
2447;DHT22;26430;48.818;9.244;2023-04-25T12:41:53;7.80;99.90
2447;DHT22;26430;48.818;9.244;2023-04-25T12:44:19;7.80;99.90
2447;DHT22;26430;48.818;9.244;2023-04-25T12:46:45;7.50;99.90
2447;DHT22;26430;48.818;9.244;2023-04-25T12:49:11;7.20;99.90
2447;DHT22;26430;48.818;9.244;2023-04-25T12:51:37;7.50;99.90
2447;DHT22;26430;48.818;9.244;2023-04-25T12:54:05;7.40;99.90
2447;DHT22;26430;48.818;9.244;2023-04-25T12:56:31;7.50;99.90
2447;DHT22;26430;48.818;9.244;2023-04-25T12:58:57;7.80;99.90
2447;DHT22;26430;48.818;9.244;2023-04-25T13:01:24;7.80;99.90
2447;DHT22;26430;48.818;9.244;2023-04-25T13:03:50;8.10;99.90
2447;DHT22;26430;48.818;9.244;2023-04-25T13:06:17;8.20;99.90
2447;DHT22;26430;48.818;9.244;2023-04-25T13:08:43;8.40;99.90
2447;DHT22;26430;48.818;9.244;2023-04-25T13:11:09;8.60;99.90
2447;DHT22;26430;48.818;9.244;2023-04-25T13:13:35;8.30;99.90
2447;DHT22;26430;48.818;9.244;2023-04-25T13:16:01;8.30;99.90
2447;DHT22;26430;48.818;9.244;2023-04-25T13:18:28;8.70;99.90
2447;DHT22;26430;48.818;9.244;2023-04-25T13:20:53;8.80;99.90
2447;DHT22;26430;48.818;9.244;2023-04-25T13:23:19;8.60;99.90
2447;DHT22;26430;48.818;9.244;2023-04-25T13:25:46;8.60;99.90
2447;DHT22;26430;48.818;9.244;2023-04-25T13:28:12;8.60;99.90
2447;DHT22;26430;48.818;9.244;2023-04-25T13:30:37;8.60;99.90
2447;DHT22;26430;48.818;9.244;2023-04-25T13:33:03;8.70;99.90
2447;DHT22;26430;48.818;9.244;2023-04-25T13:35:30;9.20;99.90
2447;DHT22;26430;48.818;9.244;2023-04-25T13:37:56;9.40;99.90
2447;DHT22;26430;48.818;9.244;2023-04-25T13:40:22;9.50;99.90
2447;DHT22;26430;48.818;9.244;2023-04-25T13:42:47;9.70;99.90
2447;DHT22;26430;48.818;9.244;2023-04-25T13:45:13;9.80;99.90
2447;DHT22;26430;48.818;9.244;2023-04-25T13:47:39;9.80;99.90
2447;DHT22;26430;48.818;9.244;2023-04-25T13:50:05;10.00;99.90
2447;DHT22;26430;48.818;9.244;2023-04-25T13:52:31;9.90;99.90
2447;DHT22;26430;48.818;9.244;2023-04-25T13:54:57;10.00;99.90
2447;DHT22;26430;48.818;9.244;2023-04-25T13:57:23;10.00;99.90
2447;DHT22;26430;48.818;9.244;2023-04-25T13:59:48;10.10;99.90
2447;DHT22;26430;48.818;9.244;2023-04-25T14:02:14;10.30;99.90
2447;DHT22;26430;48.818;9.244;2023-04-25T14:04:40;10.50;99.90
2447;DHT22;26430;48.818;9.244;2023-04-25T14:07:06;10.60;99.90
2447;DHT22;26430;48.818;9.244;2023-04-25T14:09:32;11.00;99.90
2447;DHT22;26430;48.818;9.244;2023-04-25T14:11:57;11.00;99.90
2447;DHT22;26430;48.818;9.244;2023-04-25T14:14:23;10.80;99.90
2447;DHT22;26430;48.818;9.244;2023-04-25T14:16:49;11.10;99.90
2447;DHT22;26430;48.818;9.244;2023-04-25T14:19:16;11.10;99.90
2447;DHT22;26430;48.818;9.244;2023-04-25T14:21:42;11.40;99.90
2447;DHT22;26430;48.818;9.244;2023-04-25T14:24:10;11.30;99.90
2447;DHT22;26430;48.818;9.244;2023-04-25T14:26:36;11.50;99.90
2447;DHT22;26430;48.818;9.244;2023-04-25T14:29:03;12.10;99.90
2447;DHT22;26430;48.818;9.244;2023-04-25T14:31:29;12.30;99.90
2447;DHT22;26430;48.818;9.244;2023-04-25T14:33:55;12.00;99.90
2447;DHT22;26430;48.818;9.244;2023-04-25T14:36:20;11.10;99.90
2447;DHT22;26430;48.818;9.244;2023-04-25T14:38:46;11.50;99.90
2447;DHT22;26430;48.818;9.244;2023-04-25T14:41:12;11.50;99.90
2447;DHT22;26430;48.818;9.244;2023-04-25T14:43:37;11.50;99.90
2447;DHT22;26430;48.818;9.244;2023-04-25T14:46:05;11.50;99.90
2447;DHT22;26430;48.818;9.244;2023-04-25T14:48:31;11.40;99.90
2447;DHT22;26430;48.818;9.244;2023-04-25T14:50:57;11.60;99.90
2447;DHT22;26430;48.818;9.244;2023-04-25T14:53:23;11.70;99.90
2447;DHT22;26430;48.818;9.244;2023-04-25T14:55:48;11.50;99.90
2447;DHT22;26430;48.818;9.244;2023-04-25T14:58:14;11.60;99.90
2447;DHT22;26430;48.818;9.244;2023-04-25T15:00:41;11.80;99.90
2447;DHT22;26430;48.818;9.244;2023-04-25T15:03:06;11.80;99.90
2447;DHT22;26430;48.818;9.244;2023-04-25T15:05:33;11.60;99.90
2447;DHT22;26430;48.818;9.244;2023-04-25T15:07:59;11.70;99.90
2447;DHT22;26430;48.818;9.244;2023-04-25T15:10:25;12.20;99.90
2447;DHT22;26430;48.818;9.244;2023-04-25T15:12:51;12.30;99.90
2447;DHT22;26430;48.818;9.244;2023-04-25T15:15:19;12.10;99.90
2447;DHT22;26430;48.818;9.244;2023-04-25T15:17:44;12.20;99.90
2447;DHT22;26430;48.818;9.244;2023-04-25T15:20:11;12.10;99.90
2447;DHT22;26430;48.818;9.244;2023-04-25T15:22:39;12.20;99.90
2447;DHT22;26430;48.818;9.244;2023-04-25T15:25:06;12.50;99.90
2447;DHT22;26430;48.818;9.244;2023-04-25T15:27:33;12.70;99.90
2447;DHT22;26430;48.818;9.244;2023-04-25T15:29:59;13.00;99.90
2447;DHT22;26430;48.818;9.244;2023-04-25T15:32:25;12.90;99.90
2447;DHT22;26430;48.818;9.244;2023-04-25T15:34:51;12.80;99.90
2447;DHT22;26430;48.818;9.244;2023-04-25T15:37:16;12.80;99.90
2447;DHT22;26430;48.818;9.244;2023-04-25T15:39:43;12.70;99.90
2447;DHT22;26430;48.818;9.244;2023-04-25T15:42:09;12.70;99.90
2447;DHT22;26430;48.818;9.244;2023-04-25T15:44:35;12.60;99.90
2447;DHT22;26430;48.818;9.244;2023-04-25T15:47:00;12.40;99.90
2447;DHT22;26430;48.818;9.244;2023-04-25T15:49:26;12.60;99.90
2447;DHT22;26430;48.818;9.244;2023-04-25T15:51:52;12.60;99.90
2447;DHT22;26430;48.818;9.244;2023-04-25T15:54:18;12.60;99.90
2447;DHT22;26430;48.818;9.244;2023-04-25T15:56:44;12.50;99.90
2447;DHT22;26430;48.818;9.244;2023-04-25T15:59:10;12.40;99.90
2447;DHT22;26430;48.818;9.244;2023-04-25T16:01:36;12.40;99.90